createdAt,value
2023-04-22T00:00:48.297Z,27.23
2023-04-22T00:03:15.156Z,26.70
2023-04-22T00:05:42.639Z,25.52
2023-04-22T00:08:09.428Z,27.92
2023-04-22T00:10:35.965Z,24.33
2023-04-22T00:13:02.525Z,25.45
2023-04-22T00:15:29.100Z,24.77
2023-04-22T00:17:55.686Z,25.58
2023-04-22T00:20:22.387Z,23.77
2023-04-22T00:22:48.982Z,23.88
2023-04-22T00:25:16.200Z,25.92
2023-04-22T00:27:43.009Z,26.48
2023-04-22T00:30:09.982Z,26.35
2023-04-22T00:32:36.767Z,25.25
2023-04-22T00:35:03.363Z,26.92
2023-04-22T00:37:30.000Z,25.58
2023-04-22T00:39:58.032Z,28.05
2023-04-22T00:42:25.466Z,26.88
2023-04-22T00:44:52.043Z,28.00
2023-04-22T00:47:19.182Z,26.58
2023-04-22T00:50:06.071Z,28.10
2023-04-22T00:52:32.661Z,31.23
2023-04-22T00:54:59.449Z,30.55
2023-04-22T00:57:26.946Z,33.22
2023-04-22T00:59:53.651Z,31.15
2023-04-22T01:02:20.280Z,30.75
2023-04-22T01:04:47.251Z,33.28
2023-04-22T01:07:13.825Z,32.50
2023-04-22T01:09:41.556Z,34.20
2023-04-22T01:12:08.514Z,34.70
2023-04-22T01:14:35.115Z,32.10
2023-04-22T01:17:03.186Z,33.88
2023-04-22T01:19:30.036Z,32.03
2023-04-22T01:21:57.153Z,34.50
2023-04-22T01:24:23.758Z,33.83
2023-04-22T01:26:50.728Z,33.97
2023-04-22T01:29:17.748Z,35.45
2023-04-22T01:31:44.501Z,34.25
2023-04-22T01:34:11.361Z,35.65
2023-04-22T01:36:38.273Z,36.10
2023-04-22T01:39:25.183Z,35.35
2023-04-22T01:41:52.004Z,36.78
2023-04-22T01:44:19.766Z,33.63
2023-04-22T01:46:46.460Z,35.85
2023-04-22T01:49:13.099Z,37.20
2023-04-22T01:51:40.868Z,34.05
2023-04-22T01:54:07.902Z,35.15
2023-04-22T01:56:35.400Z,41.83
2023-04-22T01:59:01.966Z,33.33
2023-04-22T02:01:32.466Z,36.75
2023-04-22T02:03:59.096Z,37.20
2023-04-22T02:06:26.075Z,37.35
2023-04-22T02:08:52.692Z,37.22
2023-04-22T02:11:19.258Z,34.70
2023-04-22T02:13:46.137Z,35.92
2023-04-22T02:16:14.022Z,39.33
2023-04-22T02:18:41.620Z,38.55
2023-04-22T02:21:08.604Z,42.35
2023-04-22T02:23:36.116Z,40.05
2023-04-22T02:26:03.814Z,40.60
2023-04-22T02:28:30.377Z,40.38
2023-04-22T02:30:57.836Z,40.95
2023-04-22T02:33:24.616Z,41.53
2023-04-22T02:35:51.994Z,39.88
2023-04-22T02:38:19.403Z,42.22
2023-04-22T02:40:46.242Z,43.65
2023-04-22T02:43:12.807Z,41.95
2023-04-22T02:45:40.876Z,42.13
2023-04-22T02:48:08.039Z,44.08
2023-04-22T02:50:35.851Z,42.78
2023-04-22T02:53:02.561Z,45.88
2023-04-22T02:55:29.140Z,43.15
2023-04-22T02:57:55.877Z,47.70
2023-04-22T03:00:22.484Z,45.95
2023-04-22T03:02:49.266Z,47.80
2023-04-22T03:05:18.395Z,49.45
2023-04-22T03:07:47.651Z,45.88
2023-04-22T03:10:16.207Z,49.45
2023-04-22T03:12:42.874Z,47.00
2023-04-22T03:15:09.668Z,46.33
2023-04-22T03:17:36.406Z,48.63
2023-04-22T03:20:09.017Z,50.10
2023-04-22T03:22:40.606Z,47.53
2023-04-22T03:25:08.591Z,46.03
2023-04-22T03:27:35.208Z,45.95
2023-04-22T03:30:02.143Z,44.60
2023-04-22T03:32:29.093Z,45.72
2023-04-22T03:35:11.604Z,47.35
2023-04-22T03:37:38.542Z,44.88
2023-04-22T03:40:07.482Z,44.00
2023-04-22T03:42:34.157Z,43.55
2023-04-22T03:45:00.832Z,41.20
2023-04-22T03:47:34.299Z,42.83
2023-04-22T03:50:08.602Z,42.75
2023-04-22T03:52:35.946Z,39.60
2023-04-22T03:55:02.608Z,35.63
2023-04-22T03:57:30.679Z,39.25
2023-04-22T03:59:59.298Z,40.60
2023-04-22T04:02:27.155Z,41.03
2023-04-22T04:04:54.866Z,37.35
2023-04-22T04:07:22.027Z,38.65
2023-04-22T04:09:50.417Z,44.55
2023-04-22T04:12:17.580Z,43.78
2023-04-22T04:14:45.481Z,41.58
2023-04-22T04:17:16.695Z,44.90
2023-04-22T04:19:44.004Z,44.45
2023-04-22T04:22:11.057Z,43.08
2023-04-22T04:24:47.873Z,44.22
2023-04-22T04:27:20.034Z,45.15
2023-04-22T04:29:52.685Z,44.50
2023-04-22T04:32:36.758Z,45.72
2023-04-22T04:35:07.405Z,43.97
2023-04-22T04:37:34.353Z,47.67
2023-04-22T04:40:07.782Z,44.78
2023-04-22T04:42:43.904Z,44.60
2023-04-22T04:45:17.729Z,43.30
2023-04-22T04:47:46.359Z,46.50
2023-04-22T04:50:23.027Z,45.35
2023-04-22T04:52:51.622Z,48.15
2023-04-22T04:55:23.893Z,47.30
2023-04-22T04:57:51.434Z,47.08
2023-04-22T05:00:18.736Z,46.60
2023-04-22T05:02:46.484Z,46.35
2023-04-22T05:05:13.365Z,48.70
2023-04-22T05:07:42.005Z,42.53
2023-04-22T05:10:10.055Z,48.55
2023-04-22T05:12:37.159Z,53.40
2023-04-22T05:15:07.462Z,47.88
2023-04-22T05:17:34.373Z,50.28
2023-04-22T05:20:01.338Z,48.03
2023-04-22T05:22:28.659Z,53.03
2023-04-22T05:24:57.723Z,52.75
2023-04-22T05:27:24.516Z,51.70
2023-04-22T05:29:51.461Z,48.83
2023-04-22T05:32:23.391Z,48.00
2023-04-22T05:34:51.022Z,51.53
2023-04-22T05:37:17.678Z,52.13
2023-04-22T05:39:44.516Z,46.15
2023-04-22T05:42:11.456Z,52.67
2023-04-22T05:44:38.907Z,48.95
2023-04-22T05:47:05.792Z,53.53
2023-04-22T05:49:32.380Z,53.08
2023-04-22T05:52:14.120Z,51.78
2023-04-22T05:54:51.925Z,49.60
2023-04-22T05:57:18.781Z,52.30
2023-04-22T05:59:46.333Z,52.05
2023-04-22T06:02:13.182Z,52.17
2023-04-22T06:04:41.154Z,54.83
2023-04-22T06:07:08.588Z,54.42
2023-04-22T06:09:38.276Z,54.15
2023-04-22T06:12:06.169Z,54.42
2023-04-22T06:14:32.830Z,57.08
2023-04-22T06:16:59.502Z,59.55
2023-04-22T06:19:26.051Z,56.13
2023-04-22T06:21:53.631Z,57.53
2023-04-22T06:24:21.401Z,62.65
2023-04-22T06:26:48.245Z,57.88
2023-04-22T06:29:14.904Z,62.50
2023-04-22T06:31:42.142Z,58.85
2023-04-22T06:34:09.190Z,53.95
2023-04-22T06:36:38.645Z,56.25
2023-04-22T06:39:06.525Z,56.10
2023-04-22T06:42:11.641Z,56.38
2023-04-22T06:44:48.636Z,58.00
2023-04-22T06:47:37.718Z,55.00
2023-04-22T06:50:15.835Z,51.00
2023-04-22T06:52:57.122Z,60.88
2023-04-22T06:55:24.554Z,55.13
2023-04-22T06:57:51.729Z,55.38
2023-04-22T07:00:18.568Z,51.45
2023-04-22T07:02:46.530Z,54.03
2023-04-22T07:05:13.242Z,49.85
2023-04-22T07:07:40.031Z,50.90
2023-04-22T07:10:08.703Z,45.67
2023-04-22T07:12:42.961Z,41.50
2023-04-22T07:15:09.697Z,40.22
2023-04-22T07:17:36.514Z,37.78
2023-04-22T07:20:03.226Z,38.75
2023-04-22T07:22:29.738Z,38.17
2023-04-22T07:24:57.094Z,37.05
2023-04-22T07:27:23.744Z,34.90
2023-04-22T07:29:50.430Z,34.80
2023-04-22T07:32:17.037Z,32.08
2023-04-22T07:34:43.836Z,34.00
2023-04-22T07:37:10.813Z,37.92
2023-04-22T07:39:37.689Z,35.60
2023-04-22T07:42:04.528Z,34.03
2023-04-22T07:44:31.253Z,35.03
2023-04-22T07:46:57.760Z,33.20
2023-04-22T07:49:24.532Z,36.25
2023-04-22T07:51:51.138Z,36.38
2023-04-22T07:54:17.673Z,35.55
2023-04-22T07:56:44.169Z,33.80
2023-04-22T07:59:10.845Z,36.55
2023-04-22T08:01:37.543Z,35.20
2023-04-22T08:04:06.630Z,37.13
2023-04-22T08:06:33.590Z,36.92
2023-04-22T08:09:00.349Z,39.05
2023-04-22T08:11:26.982Z,39.17
2023-04-22T08:13:53.654Z,38.40
2023-04-22T08:16:20.494Z,36.08
2023-04-22T08:18:47.942Z,39.75
2023-04-22T08:21:14.779Z,39.63
2023-04-22T08:23:41.510Z,39.38
2023-04-22T08:26:08.671Z,38.08
2023-04-22T08:28:35.561Z,40.47
2023-04-22T08:31:02.145Z,35.40
2023-04-22T08:33:28.793Z,38.85
2023-04-22T08:35:55.375Z,31.90
2023-04-22T08:38:21.934Z,36.47
2023-04-22T08:40:48.948Z,45.08
2023-04-22T08:43:16.119Z,47.10
2023-04-22T08:45:42.684Z,52.53
2023-04-22T08:48:09.378Z,57.60
2023-04-22T08:50:37.434Z,52.80
2023-04-22T08:53:04.565Z,50.03
2023-04-22T08:55:31.183Z,48.75
2023-04-22T08:57:59.195Z,43.80
2023-04-22T09:00:25.818Z,40.45
2023-04-22T09:02:53.139Z,37.72
2023-04-22T09:05:21.293Z,36.20
2023-04-22T09:07:48.198Z,28.95
2023-04-22T09:10:14.670Z,25.55
2023-04-22T09:12:41.566Z,27.92
2023-04-22T09:15:09.017Z,29.75
2023-04-22T09:17:38.458Z,27.33
2023-04-22T09:20:06.879Z,31.70
2023-04-22T09:22:40.397Z,31.20
2023-04-22T09:25:19.952Z,31.25
2023-04-22T09:27:53.547Z,29.02
2023-04-22T09:30:24.232Z,30.25
2023-04-22T09:32:55.015Z,31.00
2023-04-22T09:35:27.110Z,29.92
2023-04-22T09:37:53.771Z,32.10
2023-04-22T09:40:20.497Z,28.98
2023-04-22T09:42:51.445Z,28.27
2023-04-22T09:45:28.430Z,33.33
2023-04-22T09:48:00.548Z,33.28
2023-04-22T09:50:28.296Z,31.65
2023-04-22T09:52:56.043Z,30.10
2023-04-22T09:55:26.826Z,31.20
2023-04-22T09:57:57.365Z,30.10
2023-04-22T10:00:25.814Z,33.00
2023-04-22T10:02:52.396Z,31.52
2023-04-22T10:05:19.211Z,31.02
2023-04-22T10:07:45.921Z,29.55
2023-04-22T10:10:12.751Z,30.17
2023-04-22T10:12:39.338Z,28.50
2023-04-22T10:15:06.697Z,27.25
2023-04-22T10:17:34.478Z,28.17
2023-04-22T10:20:04.576Z,26.92
2023-04-22T10:22:32.891Z,29.38
2023-04-22T10:24:59.625Z,27.38
2023-04-22T10:27:26.287Z,27.35
2023-04-22T10:29:52.871Z,27.92
2023-04-22T10:32:19.522Z,27.13
2023-04-22T10:34:49.644Z,25.58
2023-04-22T10:37:19.582Z,27.33
2023-04-22T10:40:04.793Z,29.52
2023-04-22T10:45:01.612Z,29.65
2023-04-22T10:47:28.332Z,27.23
2023-04-22T10:50:13.719Z,29.05
2023-04-22T10:52:41.496Z,26.95
2023-04-22T10:55:09.238Z,27.52
2023-04-22T10:57:40.721Z,27.10
2023-04-22T11:00:21.312Z,24.27
2023-04-22T11:02:52.068Z,26.52
2023-04-22T11:05:27.496Z,25.02
2023-04-22T11:07:56.932Z,28.75
2023-04-22T11:10:44.354Z,24.70
2023-04-22T11:13:24.186Z,26.15
2023-04-22T11:15:55.014Z,24.30
2023-04-22T11:18:23.506Z,26.20
2023-04-22T11:20:50.716Z,24.23
2023-04-22T11:23:20.511Z,25.30
2023-04-22T11:26:08.043Z,25.58
2023-04-22T11:28:34.740Z,27.27
2023-04-22T11:31:02.149Z,27.02
2023-04-22T11:33:28.804Z,27.77
2023-04-22T11:35:57.887Z,27.25
2023-04-22T11:38:24.497Z,33.05
2023-04-22T11:40:50.978Z,28.60
2023-04-22T11:43:18.918Z,30.02
2023-04-22T11:45:45.519Z,30.52
2023-04-22T11:48:12.222Z,28.75
2023-04-22T11:50:39.907Z,28.48
2023-04-22T11:53:17.069Z,30.35
2023-04-22T11:55:44.785Z,28.00
2023-04-22T11:58:13.140Z,27.45
2023-04-22T12:00:40.521Z,26.67
2023-04-22T12:03:08.409Z,26.02
2023-04-22T12:05:36.406Z,27.45
2023-04-22T12:08:03.723Z,26.02
2023-04-22T12:10:30.788Z,26.60
2023-04-22T12:12:57.281Z,28.15
2023-04-22T12:15:23.947Z,30.52
2023-04-22T12:17:51.687Z,29.00
2023-04-22T12:20:18.620Z,27.27
2023-04-22T12:22:45.176Z,27.13
2023-04-22T12:25:11.962Z,28.48
2023-04-22T12:27:38.513Z,26.10
2023-04-22T12:30:05.416Z,22.48
2023-04-22T12:32:31.990Z,21.55
2023-04-22T12:34:58.525Z,22.67
2023-04-22T12:37:25.007Z,24.80
2023-04-22T12:39:51.734Z,25.10
2023-04-22T12:42:18.244Z,26.60
2023-04-22T12:44:44.836Z,27.25
2023-04-22T12:47:11.597Z,23.58
2023-04-22T12:49:39.256Z,24.25
2023-04-22T12:52:06.176Z,27.48
2023-04-22T12:54:32.922Z,26.25
2023-04-22T12:56:59.627Z,28.10
2023-04-22T12:59:26.425Z,25.58
2023-04-22T13:01:54.853Z,24.88
2023-04-22T13:04:24.538Z,26.98
2023-04-22T13:06:56.565Z,28.10
2023-04-22T13:09:26.833Z,31.48
2023-04-22T13:11:53.430Z,33.78
2023-04-22T13:14:20.007Z,33.25
2023-04-22T13:16:46.793Z,33.08
2023-04-22T13:19:13.525Z,33.90
2023-04-22T13:21:40.222Z,34.88
2023-04-22T13:24:06.893Z,35.40
2023-04-22T13:26:35.822Z,39.15
2023-04-22T13:29:02.904Z,39.47
2023-04-22T13:31:29.681Z,38.58
2023-04-22T13:33:56.483Z,40.35
2023-04-22T13:36:23.261Z,39.50
2023-04-22T13:38:50.600Z,38.63
2023-04-22T13:41:17.166Z,42.83
2023-04-22T13:43:43.626Z,34.72
2023-04-22T13:46:10.634Z,36.33
2023-04-22T13:48:37.256Z,35.17
2023-04-22T13:51:04.077Z,38.53
2023-04-22T13:53:31.524Z,35.47
2023-04-22T13:55:59.583Z,35.72
2023-04-22T13:58:26.277Z,37.53
2023-04-22T14:00:52.957Z,37.05
2023-04-22T14:03:19.633Z,35.53
2023-04-22T14:05:46.505Z,35.72
2023-04-22T14:08:13.108Z,35.28
2023-04-22T14:10:39.768Z,32.50
2023-04-22T14:13:06.546Z,33.15
2023-04-22T14:15:33.822Z,34.35
2023-04-22T14:18:00.560Z,33.97
2023-04-22T14:20:27.135Z,30.75
2023-04-22T14:22:53.682Z,33.45
2023-04-22T14:25:20.818Z,32.53
2023-04-22T14:27:47.417Z,32.90
2023-04-22T14:30:14.305Z,33.67
2023-04-22T14:32:40.981Z,33.88
2023-04-22T14:35:07.891Z,35.45
2023-04-22T14:37:35.800Z,34.83
2023-04-22T14:40:02.505Z,34.88
2023-04-22T14:42:31.591Z,35.88
2023-04-22T14:44:58.125Z,32.42
2023-04-22T14:47:24.713Z,36.15
2023-04-22T14:49:51.635Z,35.58
2023-04-22T14:52:18.168Z,36.50
2023-04-22T14:54:44.740Z,35.30
2023-04-22T14:57:12.618Z,34.90
2023-04-22T14:59:39.352Z,34.80
2023-04-22T15:02:06.330Z,34.03
2023-04-22T15:04:33.095Z,35.92
2023-04-22T15:07:00.111Z,33.55
2023-04-22T15:09:27.889Z,25.25
2023-04-22T15:11:56.453Z,21.90
2023-04-22T15:14:23.305Z,26.83
2023-04-22T15:16:49.828Z,25.42
2023-04-22T15:19:16.641Z,29.25
2023-04-22T15:21:43.280Z,31.15
2023-04-22T15:24:09.950Z,34.47
2023-04-22T15:26:36.714Z,34.78
2023-04-22T15:29:03.363Z,35.38
2023-04-22T15:31:29.906Z,29.83
2023-04-22T15:33:56.738Z,36.33
2023-04-22T15:36:23.277Z,31.27
2023-04-22T15:38:59.360Z,33.50
2023-04-22T15:41:26.538Z,31.17
2023-04-22T15:43:53.435Z,31.35
2023-04-22T15:46:20.581Z,30.58
2023-04-22T15:48:48.596Z,32.65
2023-04-22T15:51:16.099Z,29.20
2023-04-22T15:53:42.998Z,35.70
2023-04-22T15:56:09.541Z,31.38
2023-04-22T15:58:36.073Z,29.55
2023-04-22T16:01:19.198Z,29.38
2023-04-22T16:03:46.933Z,30.70
2023-04-22T16:06:13.675Z,27.10
2023-04-22T16:08:40.429Z,25.88
2023-04-22T16:11:06.987Z,24.83
2023-04-22T16:13:33.531Z,23.45
2023-04-22T16:16:00.062Z,26.40
2023-04-22T16:18:26.925Z,26.05
2023-04-22T16:20:53.684Z,24.85
2023-04-22T16:23:20.713Z,23.85
2023-04-22T16:25:47.411Z,24.42
2023-04-22T16:28:14.703Z,27.25
2023-04-22T16:30:41.215Z,28.23
2023-04-22T16:33:07.923Z,24.02
2023-04-22T16:35:34.739Z,26.73
2023-04-22T16:38:01.498Z,26.63
2023-04-22T16:40:28.266Z,26.15
2023-04-22T16:42:57.243Z,26.10
2023-04-22T16:45:23.831Z,23.95
2023-04-22T16:47:50.531Z,23.30
2023-04-22T16:50:17.510Z,32.05
2023-04-22T16:52:44.152Z,27.85
2023-04-22T16:55:10.700Z,30.35
2023-04-22T16:57:37.247Z,27.75
2023-04-22T17:00:05.985Z,26.33
2023-04-22T17:02:33.093Z,26.10
2023-04-22T17:05:02.580Z,26.48
2023-04-22T17:07:29.141Z,28.10
2023-04-22T17:09:55.706Z,26.23
2023-04-22T17:12:22.504Z,26.88
2023-04-22T17:14:49.006Z,25.08
2023-04-22T17:17:15.646Z,24.45
2023-04-22T17:19:43.854Z,26.90
2023-04-22T17:22:10.743Z,24.15
2023-04-22T17:24:37.301Z,26.02
2023-04-22T17:27:04.712Z,22.45
2023-04-22T17:29:31.277Z,25.50
2023-04-22T17:31:57.988Z,26.08
2023-04-22T17:34:25.568Z,28.20
2023-04-22T17:36:52.267Z,27.25
2023-04-22T17:39:18.822Z,25.15
2023-04-22T17:41:47.737Z,26.23
2023-04-22T17:44:14.285Z,29.77
2023-04-22T17:46:41.789Z,28.05
2023-04-22T17:49:08.526Z,24.90
2023-04-22T17:51:35.166Z,27.33
2023-04-22T17:54:03.254Z,28.45
2023-04-22T17:56:29.897Z,25.92
2023-04-22T17:58:56.631Z,26.45
2023-04-22T18:01:23.251Z,28.35
2023-04-22T18:03:49.873Z,25.63
2023-04-22T18:06:16.549Z,27.88
2023-04-22T18:08:43.090Z,27.83
2023-04-22T18:11:10.120Z,29.40
2023-04-22T18:13:36.880Z,29.00
2023-04-22T18:16:03.624Z,28.38
2023-04-22T18:18:31.580Z,26.63
2023-04-22T18:20:58.078Z,31.05
2023-04-22T18:23:24.667Z,31.75
2023-04-22T18:25:51.429Z,28.70
2023-04-22T18:28:17.913Z,30.25
2023-04-22T18:30:44.855Z,27.73
2023-04-22T18:33:11.603Z,30.70
2023-04-22T18:35:42.206Z,29.60
2023-04-22T18:38:09.122Z,30.20
2023-04-22T18:40:35.766Z,31.85
2023-04-22T18:43:02.625Z,33.83
2023-04-22T18:45:29.138Z,32.47
2023-04-22T18:47:56.805Z,31.92
2023-04-22T18:50:23.538Z,33.28
2023-04-22T18:52:50.435Z,35.38
2023-04-22T18:55:17.210Z,34.95
2023-04-22T18:57:44.157Z,32.45
2023-04-22T19:00:12.708Z,36.90
2023-04-22T19:02:42.147Z,30.58
2023-04-22T19:05:09.573Z,27.33
2023-04-22T19:07:37.338Z,25.50
2023-04-22T19:10:04.516Z,27.08
2023-04-22T19:12:31.232Z,25.98
2023-04-22T19:15:00.221Z,25.13
2023-04-22T19:17:27.849Z,25.42
2023-04-22T19:19:57.560Z,25.63
2023-04-22T19:22:26.955Z,23.52
2023-04-22T19:24:53.895Z,22.70
2023-04-22T19:27:23.511Z,19.27
2023-04-22T19:29:53.433Z,21.20
2023-04-22T19:32:21.021Z,20.67
2023-04-22T19:34:49.916Z,21.50
2023-04-22T19:37:17.229Z,22.27
2023-04-22T19:39:44.157Z,21.27
2023-04-22T19:42:12.685Z,24.17
2023-04-22T19:44:46.828Z,24.20
2023-04-22T19:47:15.060Z,24.55
2023-04-22T19:49:42.140Z,24.63
2023-04-22T19:52:13.712Z,26.27
2023-04-22T19:54:41.404Z,26.30
2023-04-22T19:57:08.231Z,27.92
2023-04-22T19:59:35.015Z,27.67
2023-04-22T20:02:01.894Z,27.88
2023-04-22T20:04:28.808Z,29.45
2023-04-22T20:06:57.697Z,29.10
2023-04-22T20:09:24.554Z,28.63
2023-04-22T20:11:53.652Z,29.05
2023-04-22T20:14:21.672Z,30.48
2023-04-22T20:16:49.918Z,28.75
2023-04-22T20:19:16.789Z,31.17
2023-04-22T20:21:44.276Z,31.00
2023-04-22T20:24:19.014Z,30.52
2023-04-22T20:26:46.932Z,29.15
2023-04-22T20:29:13.599Z,29.80
2023-04-22T20:31:40.421Z,30.00
2023-04-22T20:34:07.249Z,32.58
2023-04-22T20:36:33.996Z,31.17
2023-04-22T20:39:05.193Z,28.73
2023-04-22T20:41:36.012Z,28.25
2023-04-22T20:44:02.692Z,29.30
2023-04-22T20:46:29.305Z,29.98
2023-04-22T20:49:01.246Z,31.88
2023-04-22T20:51:29.188Z,33.35
2023-04-22T20:53:57.037Z,30.23
2023-04-22T20:56:24.933Z,29.33
2023-04-22T20:58:51.607Z,28.60
2023-04-22T21:01:19.550Z,28.48
2023-04-22T21:03:49.767Z,27.55
2023-04-22T21:06:16.746Z,27.83
2023-04-22T21:08:43.198Z,28.20
2023-04-22T21:11:09.807Z,28.80
2023-04-22T21:13:36.593Z,30.40
2023-04-22T21:16:04.669Z,26.73
2023-04-22T21:18:32.753Z,27.73
2023-04-22T21:21:05.409Z,26.67
2023-04-22T21:23:32.368Z,27.42
2023-04-22T21:26:01.505Z,25.88
2023-04-22T21:31:00.621Z,29.45
2023-04-22T21:33:27.165Z,27.52
2023-04-22T21:35:53.919Z,28.15
2023-04-22T21:38:22.679Z,25.00
2023-04-22T21:40:49.581Z,29.23
2023-04-22T21:43:16.314Z,30.75
2023-04-22T21:45:43.078Z,28.35
2023-04-22T21:48:12.178Z,26.23
2023-04-22T21:50:38.813Z,28.90
2023-04-22T21:53:09.516Z,27.10
2023-04-22T21:55:36.366Z,26.00
2023-04-22T21:58:02.926Z,24.60
2023-04-22T22:00:30.803Z,28.70
2023-04-22T22:02:57.608Z,24.58
2023-04-22T22:05:24.329Z,24.30
2023-04-22T22:07:50.912Z,24.77
2023-04-22T22:10:22.114Z,25.27
2023-04-22T22:12:49.147Z,23.80
2023-04-22T22:15:18.888Z,25.13
2023-04-22T22:17:47.047Z,25.05
2023-04-22T22:20:16.796Z,24.27
2023-04-22T22:22:43.915Z,26.33
2023-04-22T22:25:11.578Z,28.02
2023-04-22T22:27:40.665Z,27.73
2023-04-22T22:30:07.879Z,25.73
2023-04-22T22:32:35.545Z,23.83
2023-04-22T22:35:02.035Z,24.17
2023-04-22T22:37:28.696Z,25.48
2023-04-22T22:39:55.353Z,24.45
2023-04-22T22:42:22.092Z,23.70
2023-04-22T22:44:48.698Z,24.67
2023-04-22T22:47:17.748Z,26.00
2023-04-22T22:49:44.761Z,25.45
2023-04-22T22:52:11.841Z,21.27
2023-04-22T22:54:39.605Z,24.98
2023-04-22T22:57:06.778Z,25.67
2023-04-22T22:59:33.996Z,26.00
2023-04-22T23:02:00.778Z,22.67
2023-04-22T23:04:28.120Z,22.73
2023-04-22T23:06:57.656Z,22.38
2023-04-22T23:09:24.344Z,24.13
2023-04-22T23:11:55.327Z,23.63
2023-04-22T23:14:29.797Z,23.75
2023-04-22T23:16:56.554Z,26.58
2023-04-22T23:19:23.449Z,22.00
2023-04-22T23:21:50.300Z,24.70
2023-04-22T23:24:16.988Z,24.27
2023-04-22T23:26:43.724Z,25.95
2023-04-22T23:29:10.477Z,20.92
2023-04-22T23:31:39.246Z,21.65
2023-04-22T23:34:06.048Z,22.83
2023-04-22T23:36:33.778Z,24.10
2023-04-22T23:39:00.897Z,23.70
2023-04-22T23:41:27.747Z,21.55
2023-04-22T23:43:54.289Z,22.08
2023-04-22T23:46:21.054Z,23.00
2023-04-22T23:48:47.646Z,23.70
2023-04-22T23:51:16.362Z,25.27
2023-04-22T23:53:43.225Z,24.13
2023-04-22T23:56:10.263Z,23.13
2023-04-22T23:58:37.083Z,20.33
